createdAt,value
2019-01-21T00:33:53.891Z,100403.44
2019-01-21T00:38:51.714Z,100402.97
2019-01-21T00:41:21.049Z,100402.97
2019-01-21T00:43:50.155Z,100403.91
2019-01-21T00:46:19.500Z,100404.25
2019-01-21T00:48:49.844Z,100404.25
2019-01-21T00:51:19.621Z,100405.80
2019-01-21T00:53:48.709Z,100411.40
2019-01-21T00:56:17.815Z,100416.37
2019-01-21T00:58:46.893Z,100417.66
2019-01-21T01:01:16.005Z,100426.66
2019-01-21T01:03:45.095Z,100426.66
2019-01-21T01:06:14.262Z,100419.62
2019-01-21T01:08:43.431Z,100419.62
2019-01-21T01:11:12.559Z,100427.89
2019-01-21T01:13:41.656Z,100434.15
2019-01-21T01:16:10.724Z,100440.10
2019-01-21T01:18:39.843Z,100440.10
2019-01-21T01:21:08.949Z,100441.89
2019-01-21T01:23:38.176Z,100441.84
2019-01-21T01:26:07.208Z,100441.84
2019-01-21T01:28:36.482Z,100441.28
2019-01-21T01:31:05.663Z,100439.63
2019-01-21T01:33:34.727Z,100439.63
2019-01-21T01:36:03.820Z,100439.54
2019-01-21T01:38:32.848Z,100443.48
2019-01-21T01:41:01.947Z,100448.06
2019-01-21T01:43:30.968Z,100445.73
2019-01-21T01:46:00.100Z,100445.73
2019-01-21T01:48:29.182Z,100445.73
2019-01-21T01:50:58.453Z,100444.36
2019-01-21T01:53:27.547Z,100443.89
2019-01-21T01:55:56.672Z,100443.89
2019-01-21T01:58:25.757Z,100449.45
2019-01-21T02:00:54.849Z,100450.65
2019-01-21T02:03:24.102Z,100444.64
2019-01-21T02:05:53.221Z,100449.70
2019-01-21T02:08:22.233Z,100448.66
2019-01-21T02:10:51.377Z,100448.34
2019-01-21T02:13:20.491Z,100447.39
2019-01-21T02:15:49.587Z,100447.39
2019-01-21T02:18:18.682Z,100455.91
2019-01-21T02:20:47.830Z,100459.76
2019-01-21T02:23:18.077Z,100459.76
2019-01-21T02:25:56.957Z,100456.63
2019-01-21T02:28:37.640Z,100458.48
2019-01-21T02:31:42.804Z,100458.48
2019-01-21T02:34:15.898Z,100455.35
2019-01-21T02:37:40.399Z,100465.00
2019-01-21T02:40:46.886Z,100462.92
2019-01-21T02:44:08.896Z,100462.92
2019-01-21T02:47:04.167Z,100463.96
2019-01-21T02:50:10.534Z,100466.62
2019-01-21T02:53:17.217Z,100465.75
2019-01-21T02:56:13.388Z,100461.96
2019-01-21T02:59:24.614Z,100461.19
2019-01-21T03:02:24.861Z,100462.62
2019-01-21T03:05:35.479Z,100463.00
2019-01-21T03:08:41.593Z,100462.29
2019-01-21T03:11:34.575Z,100462.29
2019-01-21T03:14:15.651Z,100460.37
2019-01-21T03:17:10.563Z,100466.05
2019-01-21T03:20:13.617Z,100462.77
2019-01-21T03:23:05.141Z,100465.81
2019-01-21T03:25:57.352Z,100460.67
2019-01-21T03:29:25.637Z,100459.63
2019-01-21T03:32:35.802Z,100457.24
2019-01-21T03:35:30.785Z,100455.00
2019-01-21T03:38:27.224Z,100459.64
2019-01-21T03:41:33.564Z,100458.13
2019-01-21T03:44:39.393Z,100456.75
2019-01-21T03:47:32.712Z,100455.38
2019-01-21T03:50:36.581Z,100449.95
2019-01-21T03:53:52.684Z,100450.42
2019-01-21T03:56:30.971Z,100447.37
2019-01-21T03:59:43.667Z,100447.05
2019-01-21T04:02:44.188Z,100447.05
2019-01-21T04:05:51.651Z,100452.58
2019-01-21T04:08:52.451Z,100452.80
2019-01-21T04:11:44.178Z,100450.98
2019-01-21T04:15:02.445Z,100450.41
2019-01-21T04:18:06.757Z,100446.47
2019-01-21T04:20:46.895Z,100448.16
2019-01-21T04:23:38.627Z,100457.39
2019-01-21T04:26:52.317Z,100455.39
2019-01-21T04:29:44.170Z,100457.20
2019-01-21T04:32:31.214Z,100452.88
2019-01-21T04:35:47.543Z,100444.88
2019-01-21T04:38:57.573Z,100447.73
2019-01-21T04:42:00.422Z,100446.69
2019-01-21T04:45:06.690Z,100445.67
2019-01-21T04:48:10.023Z,100453.12
2019-01-21T04:51:16.706Z,100458.16
2019-01-21T04:54:19.228Z,100464.95
2019-01-21T04:57:21.402Z,100462.94
2019-01-21T05:00:30.554Z,100460.14
2019-01-21T05:03:29.351Z,100457.26
2019-01-21T05:06:31.583Z,100459.34
2019-01-21T05:09:27.750Z,100452.84
2019-01-21T05:12:33.909Z,100455.64
2019-01-21T05:15:36.658Z,100453.65
2019-01-21T05:18:45.102Z,100459.58
2019-01-21T05:22:01.389Z,100455.80
2019-01-21T05:24:53.569Z,100450.66
2019-01-21T05:28:13.133Z,100459.26
2019-01-21T05:31:26.219Z,100457.78
2019-01-21T05:34:51.594Z,100459.33
2019-01-21T05:37:52.844Z,100456.77
2019-01-21T05:40:47.010Z,100452.98
2019-01-21T05:44:15.433Z,100454.84
2019-01-21T05:47:15.790Z,100454.73
2019-01-21T05:50:13.568Z,100455.55
2019-01-21T05:53:48.001Z,100456.02
2019-01-21T05:57:02.718Z,100456.92
2019-01-21T05:59:58.635Z,100452.59
2019-01-21T06:03:26.745Z,100446.98
2019-01-21T06:06:40.923Z,100449.61
2019-01-21T06:09:54.151Z,100451.38
2019-01-21T06:12:36.707Z,100457.78
2019-01-21T06:15:47.116Z,100457.78
2019-01-21T06:18:44.797Z,100457.30
2019-01-21T06:22:10.073Z,100453.94
2019-01-21T06:25:17.100Z,100457.40
2019-01-21T06:28:26.120Z,100457.30
2019-01-21T06:31:31.709Z,100461.47
2019-01-21T06:34:36.581Z,100466.28
2019-01-21T06:37:34.288Z,100468.94
2019-01-21T06:40:59.461Z,100476.05
2019-01-21T06:43:56.544Z,100483.91
2019-01-21T06:47:15.395Z,100485.20
2019-01-21T06:50:27.377Z,100476.61
2019-01-21T06:53:30.167Z,100476.92
2019-01-21T06:56:55.423Z,100475.03
2019-01-21T07:00:02.230Z,100473.20
2019-01-21T07:03:27.513Z,100485.28
2019-01-21T07:06:31.426Z,100485.77
2019-01-21T07:09:45.065Z,100487.05
2019-01-21T07:12:39.188Z,100490.61
2019-01-21T07:15:38.409Z,100491.95
2019-01-21T07:18:57.716Z,100487.15
2019-01-21T07:22:12.563Z,100494.26
2019-01-21T07:25:01.357Z,100490.77
2019-01-21T07:27:57.915Z,100489.48
2019-01-21T07:30:59.777Z,100493.11
2019-01-21T07:33:54.732Z,100488.23
2019-01-21T07:37:00.663Z,100493.14
2019-01-21T07:39:57.548Z,100498.91
2019-01-21T07:43:06.835Z,100504.69
2019-01-21T07:46:04.522Z,100506.52
2019-01-21T07:49:17.623Z,100512.59
2019-01-21T07:52:22.935Z,100512.92
2019-01-21T07:55:10.883Z,100523.21
2019-01-21T07:58:24.248Z,100518.05
2019-01-21T08:01:39.288Z,100525.58
2019-01-21T08:04:45.617Z,100525.93
2019-01-21T08:07:50.746Z,100522.34
2019-01-21T08:10:53.561Z,100526.82
2019-01-21T08:14:12.708Z,100530.84
2019-01-21T08:17:07.069Z,100530.83
2019-01-21T08:20:23.237Z,100530.31
2019-01-21T08:23:30.824Z,100526.66
2019-01-21T08:26:38.229Z,100531.26
2019-01-21T08:29:33.875Z,100545.73
2019-01-21T08:32:20.951Z,100545.73
2019-01-21T08:35:31.082Z,100534.20
2019-01-21T08:38:40.132Z,100542.84
2019-01-21T08:42:23.618Z,100549.98
2019-01-21T08:45:29.601Z,100550.45
2019-01-21T08:48:32.350Z,100552.58
2019-01-21T08:51:54.661Z,100548.77
2019-01-21T08:54:31.975Z,100543.11
2019-01-21T08:57:46.112Z,100549.17
2019-01-21T09:00:55.872Z,100550.27
2019-01-21T09:04:00.635Z,100555.61
2019-01-21T09:06:37.580Z,100553.36
2019-01-21T09:09:33.167Z,100555.31
2019-01-21T09:12:50.126Z,100552.84
2019-01-21T09:16:15.178Z,100546.83
2019-01-21T09:19:16.160Z,100541.33
2019-01-21T09:22:07.906Z,100541.50
2019-01-21T09:24:55.746Z,100541.73
2019-01-21T09:27:47.644Z,100541.30
2019-01-21T09:30:53.684Z,100546.16
2019-01-21T09:34:12.905Z,100543.41
2019-01-21T09:37:44.552Z,100543.36
2019-01-21T09:40:54.110Z,100541.98
2019-01-21T09:43:48.491Z,100533.69
2019-01-21T09:46:50.711Z,100523.94
2019-01-21T09:49:18.273Z,100524.27
2019-01-21T09:52:11.626Z,100524.69
2019-01-21T09:54:41.554Z,100526.79
2019-01-21T09:57:17.328Z,100521.25
2019-01-21T09:59:55.007Z,100524.87
2019-01-21T10:02:42.864Z,100523.23
2019-01-21T10:05:13.880Z,100518.31
2019-01-21T10:08:01.375Z,100521.87
2019-01-21T10:11:13.494Z,100513.17
2019-01-21T10:14:26.771Z,100512.17
2019-01-21T10:17:21.057Z,100514.30
2019-01-21T10:20:40.323Z,100516.08
2019-01-21T10:24:04.919Z,100522.03
2019-01-21T10:27:16.853Z,100513.23
2019-01-21T10:30:16.971Z,100501.83
2019-01-21T10:33:29.946Z,100499.97
2019-01-21T10:36:49.037Z,100495.73
2019-01-21T10:39:35.729Z,100494.08
2019-01-21T10:43:13.341Z,100499.30
2019-01-21T10:46:12.629Z,100497.83
2019-01-21T10:48:51.250Z,100490.05
2019-01-21T10:52:07.550Z,100486.83
2019-01-21T10:55:05.844Z,100488.81
2019-01-21T10:57:53.418Z,100482.75
2019-01-21T11:01:17.402Z,100481.64
2019-01-21T11:04:10.854Z,100474.77
2019-01-21T11:07:11.951Z,100469.97
2019-01-21T11:10:00.962Z,100471.56
2019-01-21T11:12:57.003Z,100473.27
2019-01-21T11:15:37.503Z,100463.45
2019-01-21T11:18:24.022Z,100465.92
2019-01-21T11:21:18.409Z,100461.59
2019-01-21T11:24:22.094Z,100448.56
2019-01-21T11:27:23.260Z,100441.78
2019-01-21T11:30:26.697Z,100444.47
2019-01-21T11:33:48.559Z,100441.84
2019-01-21T11:37:17.222Z,100433.17
2019-01-21T11:40:38.311Z,100432.81
2019-01-21T11:43:33.573Z,100435.42
2019-01-21T11:46:39.779Z,100429.81
2019-01-21T11:50:02.331Z,100428.91
2019-01-21T11:52:53.782Z,100420.05
2019-01-21T11:55:46.573Z,100422.94
2019-01-21T11:58:55.909Z,100422.73
2019-01-21T12:02:06.258Z,100414.09
2019-01-21T12:04:56.360Z,100416.03
2019-01-21T12:07:49.764Z,100410.48
2019-01-21T12:10:46.370Z,100413.89
2019-01-21T12:13:56.527Z,100415.55
2019-01-21T12:17:18.531Z,100415.76
2019-01-21T12:20:17.023Z,100405.70
2019-01-21T12:23:26.364Z,100397.33
2019-01-21T12:26:17.859Z,100388.81
2019-01-21T12:29:23.832Z,100381.31
2019-01-21T12:32:39.693Z,100385.17
2019-01-21T12:35:45.979Z,100386.61
2019-01-21T12:38:40.923Z,100381.67
2019-01-21T12:41:35.311Z,100388.58
2019-01-21T13:18:38.970Z,100326.31
2019-01-21T13:21:49.746Z,100335.44
2019-01-21T13:25:02.572Z,100330.84
2019-01-21T13:28:13.076Z,100324.00
2019-01-21T13:31:24.215Z,100316.42
2019-01-21T13:34:40.740Z,100323.23
2019-01-21T13:37:48.691Z,100326.44
2019-01-21T13:41:11.550Z,100318.33
2019-01-21T14:00:38.828Z,100314.93
2019-01-21T14:10:42.625Z,100302.22
2019-01-21T14:13:38.778Z,100296.53
2019-01-21T14:17:12.310Z,100287.25
2019-01-21T14:21:01.159Z,100289.83
2019-01-21T14:25:14.710Z,100281.91
2019-01-21T14:28:16.409Z,100276.16
2019-01-21T14:31:25.065Z,100272.97
2019-01-21T14:34:09.783Z,100274.15
2019-01-21T14:37:12.944Z,100267.97
2019-01-21T14:40:36.012Z,100252.61
2019-01-21T14:47:56.565Z,100254.67
2019-01-21T14:56:01.554Z,100239.22
2019-01-21T14:59:43.677Z,100238.20
2019-01-21T15:02:36.294Z,100228.47
2019-01-21T15:05:45.048Z,100227.07
2019-01-21T15:08:29.230Z,100233.51
2019-01-21T15:11:21.231Z,100242.50
2019-01-21T15:14:09.725Z,100240.67
2019-01-21T15:17:04.555Z,100247.54
2019-01-21T15:19:46.122Z,100242.69
2019-01-21T15:22:41.681Z,100249.52
2019-01-21T15:25:56.779Z,100004.02
2019-01-21T15:28:50.476Z,99743.73
2019-01-21T15:31:50.173Z,100247.27
2019-01-21T15:35:16.764Z,100243.12
2019-01-21T15:38:19.601Z,100238.19
2019-01-21T15:41:19.685Z,100243.16
2019-01-21T15:44:16.020Z,100241.60
2019-01-21T15:47:23.396Z,100074.70
2019-01-21T15:50:41.387Z,100239.09
2019-01-21T15:53:22.924Z,100238.97
2019-01-21T15:56:20.006Z,100240.06
2019-01-21T15:59:29.513Z,100245.48
2019-01-21T16:02:11.827Z,100246.12
2019-01-21T16:05:05.651Z,100268.77
2019-01-21T16:07:57.732Z,100261.28
2019-01-21T16:10:57.981Z,100256.39
2019-01-21T16:13:45.296Z,100256.98
2019-01-21T16:16:31.632Z,100253.76
2019-01-21T16:19:07.600Z,100251.45
2019-01-21T16:22:19.751Z,100247.81
2019-01-21T16:25:23.909Z,100249.45
2019-01-21T16:28:36.332Z,100245.34
2019-01-21T16:35:02.285Z,100248.53
2019-01-21T16:38:23.912Z,100249.28
2019-01-21T16:41:41.837Z,100247.88
2019-01-21T16:45:01.029Z,100229.98
2019-01-21T16:48:15.425Z,100222.45
2019-01-21T16:50:44.724Z,100234.47
2019-01-21T16:53:16.529Z,100221.33
2019-01-21T16:55:46.543Z,99986.83
2019-01-21T16:58:17.446Z,100221.38
2019-01-21T17:00:53.571Z,100216.02
2019-01-21T17:03:22.784Z,100221.61
2019-01-21T17:05:54.725Z,100225.36
2019-01-21T17:08:26.220Z,100224.34
2019-01-21T17:10:56.458Z,100223.34
2019-01-21T17:13:28.358Z,100224.11
2019-01-21T17:15:57.485Z,100224.95
2019-01-21T17:18:26.870Z,100217.03
2019-01-21T17:21:00.530Z,100215.17
2019-01-21T17:23:29.689Z,100218.53
2019-01-21T17:26:01.314Z,100209.92
2019-01-21T17:28:37.809Z,100206.37
2019-01-21T17:31:08.227Z,100206.30
2019-01-21T17:33:59.799Z,100204.55
2019-01-21T17:36:38.093Z,100207.42
2019-01-21T17:39:09.601Z,100204.76
2019-01-21T17:42:22.953Z,100201.16
2019-01-21T17:44:52.792Z,100208.34
2019-01-21T17:47:41.938Z,99723.77
2019-01-21T17:50:12.534Z,100204.45
2019-01-21T17:52:51.712Z,100209.95
2019-01-21T17:55:22.575Z,100205.16
2019-01-21T17:57:53.447Z,100203.80
2019-01-21T18:00:24.002Z,100200.70
2019-01-21T18:02:53.436Z,100197.19
2019-01-21T18:05:22.801Z,100191.89
2019-01-21T18:08:06.043Z,100189.22
2019-01-21T18:10:35.284Z,100183.53
2019-01-21T18:13:04.359Z,100181.22
2019-01-21T18:15:33.562Z,100176.02
2019-01-21T18:18:02.707Z,100175.51
2019-01-21T18:20:31.795Z,100013.05
2019-01-21T18:23:00.920Z,100178.48
2019-01-21T18:25:30.023Z,100174.94
2019-01-21T18:27:59.103Z,100176.23
2019-01-21T18:30:28.765Z,100178.36
2019-01-21T18:32:57.886Z,100175.78
2019-01-21T18:35:28.022Z,100173.11
2019-01-21T18:37:57.237Z,100178.23
2019-01-21T18:40:26.352Z,100180.81
2019-01-21T18:42:55.477Z,100175.13
2019-01-21T18:45:28.405Z,100169.88
2019-01-21T18:48:06.312Z,100173.22
2019-01-21T18:50:35.772Z,100171.81
2019-01-21T18:53:05.089Z,100165.70
2019-01-21T18:55:34.421Z,100170.36
2019-01-21T18:58:03.770Z,100165.05
2019-01-21T19:00:33.010Z,100162.78
2019-01-21T19:03:03.646Z,100164.91
2019-01-21T19:05:47.740Z,100162.64
2019-01-21T19:08:23.362Z,100153.54
2019-01-21T19:10:52.714Z,100151.70
2019-01-21T19:13:22.111Z,100155.45
2019-01-21T19:16:25.849Z,100154.88
2019-01-21T19:19:05.464Z,100156.08
2019-01-21T19:21:34.900Z,100157.17
2019-01-21T19:24:04.272Z,100152.34
2019-01-21T19:26:33.641Z,100148.21
2019-01-21T19:29:03.279Z,100148.21
2019-01-21T19:31:34.477Z,100144.31
2019-01-21T19:34:03.674Z,100141.20
2019-01-21T19:36:32.873Z,100138.94
2019-01-21T19:39:02.156Z,100136.66
2019-01-21T19:41:31.268Z,100135.29
2019-01-21T19:44:00.299Z,100131.78
2019-01-21T19:46:29.619Z,100131.20
2019-01-21T19:49:01.108Z,100129.00
2019-01-21T19:51:30.425Z,100123.94
2019-01-21T19:53:59.672Z,100123.94
2019-01-21T19:56:28.968Z,100132.94
2019-01-21T19:58:58.115Z,100132.94
2019-01-21T20:01:27.697Z,100126.36
2019-01-21T20:03:57.220Z,100116.54
2019-01-21T20:06:26.512Z,100116.54
2019-01-21T20:08:55.584Z,100124.62
2019-01-21T20:11:24.687Z,100122.47
2019-01-21T20:13:53.739Z,100118.35
2019-01-21T20:16:24.343Z,100117.77
2019-01-21T20:18:53.528Z,100115.55
2019-01-21T20:21:22.603Z,100119.33
2019-01-21T20:23:51.798Z,100108.88
2019-01-21T20:26:20.892Z,100111.37
2019-01-21T20:28:50.050Z,100101.79
2019-01-21T20:31:19.042Z,100105.96
2019-01-21T20:33:52.017Z,100103.16
2019-01-21T20:36:19.075Z,100097.84
2019-01-21T20:38:48.158Z,100103.37
2019-01-21T20:41:17.254Z,100098.11
2019-01-21T20:43:46.414Z,100096.23
2019-01-21T20:46:15.691Z,100092.66
2019-01-21T20:48:44.773Z,100097.89
2019-01-21T20:51:14.015Z,100089.62
2019-01-21T20:53:43.301Z,100093.86
2019-01-21T20:56:12.389Z,100086.48
2019-01-21T20:58:41.667Z,100086.42
2019-01-21T21:01:10.743Z,100086.79
2019-01-21T21:03:39.857Z,100086.66
2019-01-21T21:06:09.263Z,100090.03
2019-01-21T21:08:38.372Z,100092.48
2019-01-21T21:11:07.400Z,100094.56
2019-01-21T21:13:36.462Z,100098.30
2019-01-21T21:16:05.517Z,100090.53
2019-01-21T21:18:34.583Z,100094.27
2019-01-21T21:21:03.651Z,100094.56
2019-01-21T21:23:32.728Z,100088.55
2019-01-21T21:26:01.809Z,100088.02
2019-01-21T21:28:31.290Z,100088.84
2019-01-21T21:31:00.327Z,100086.62
2019-01-21T21:33:29.438Z,100078.76
2019-01-21T21:36:01.277Z,100082.30
2019-01-21T21:38:30.383Z,100074.89
2019-01-21T21:40:59.427Z,100076.08
2019-01-21T21:43:28.517Z,100074.40
2019-01-21T21:45:57.566Z,100071.30
2019-01-21T21:48:31.725Z,100058.77
2019-01-21T21:50:57.545Z,100063.92
2019-01-21T21:53:26.629Z,100056.19
2019-01-21T21:55:55.739Z,100062.20
2019-01-21T21:58:24.939Z,100059.17
2019-01-21T22:00:54.036Z,100058.77
2019-01-21T22:03:23.122Z,100052.79
2019-01-21T22:05:52.168Z,100050.05
2019-01-21T22:08:21.449Z,100045.58
2019-01-21T22:10:50.572Z,100042.15
2019-01-21T22:13:19.735Z,100047.23
2019-01-21T22:15:48.785Z,100043.73
2019-01-21T22:18:17.829Z,100028.34
2019-01-21T22:20:47.175Z,100038.02
2019-01-21T22:23:16.242Z,100018.86
2019-01-21T22:25:45.297Z,100026.06
2019-01-21T22:28:14.322Z,100023.05
2019-01-21T22:30:43.384Z,100023.05
2019-01-21T22:33:12.890Z,100013.02
2019-01-21T22:35:41.927Z,100011.89
2019-01-21T22:38:10.966Z,100007.10
2019-01-21T22:40:40.907Z,100012.72
2019-01-21T22:43:10.372Z,100003.93
2019-01-21T22:45:39.524Z,100003.11
2019-01-21T22:48:08.660Z,100001.78
2019-01-21T22:50:37.727Z,100006.58
2019-01-21T22:53:06.809Z,99999.67
2019-01-21T22:55:35.977Z,99999.67
2019-01-21T22:58:05.335Z,99995.84
2019-01-21T23:00:56.214Z,99982.92
2019-01-21T23:03:26.460Z,99990.06
2019-01-21T23:05:55.608Z,99985.93
2019-01-21T23:08:24.866Z,99978.03
2019-01-21T23:10:54.279Z,99978.03
2019-01-21T23:13:24.626Z,99976.28
2019-01-21T23:15:53.749Z,99962.81
2019-01-21T23:18:23.009Z,99962.81
2019-01-21T23:20:52.463Z,99955.25
2019-01-21T23:23:21.601Z,99955.25
2019-01-21T23:25:50.655Z,99944.72
2019-01-21T23:28:19.779Z,99936.75
2019-01-21T23:30:48.824Z,99936.30
2019-01-21T23:33:17.904Z,99936.30
2019-01-21T23:35:47.178Z,99943.09
2019-01-21T23:38:16.208Z,99941.80
2019-01-21T23:40:45.239Z,99936.66
2019-01-21T23:43:14.348Z,99936.66
2019-01-21T23:45:43.435Z,99930.61
2019-01-21T23:48:12.564Z,99928.37
2019-01-21T23:50:41.591Z,99920.22
2019-01-21T23:53:10.691Z,99920.22
2019-01-21T23:55:39.748Z,99922.33
2019-01-21T23:58:08.868Z,99915.50
